sensor_id;sensor_type;location;lat;lon;timestamp;P1;durP1;ratioP1;P2;durP2;ratioP2
57832;SDS011;43667;53.036;6.740;2022-12-18T00:01:26;102.13;;;41.40;;
57832;SDS011;43667;53.036;6.740;2022-12-18T00:03:56;104.30;;;41.63;;
57832;SDS011;43667;53.036;6.740;2022-12-18T00:06:23;110.77;;;42.60;;
57832;SDS011;43667;53.036;6.740;2022-12-18T00:08:50;108.67;;;45.93;;
57832;SDS011;43667;53.036;6.740;2022-12-18T00:11:23;104.68;;;42.22;;
57832;SDS011;43667;53.036;6.740;2022-12-18T00:13:50;102.80;;;41.73;;
57832;SDS011;43667;53.036;6.740;2022-12-18T00:16:17;114.33;;;43.60;;
57832;SDS011;43667;53.036;6.740;2022-12-18T00:18:47;109.40;;;44.35;;
57832;SDS011;43667;53.036;6.740;2022-12-18T00:21:14;118.50;;;46.08;;
57832;SDS011;43667;53.036;6.740;2022-12-18T00:23:40;101.57;;;42.80;;
57832;SDS011;43667;53.036;6.740;2022-12-18T00:26:10;112.53;;;45.03;;
57832;SDS011;43667;53.036;6.740;2022-12-18T00:28:38;116.65;;;44.50;;
57832;SDS011;43667;53.036;6.740;2022-12-18T00:31:04;116.78;;;45.00;;
57832;SDS011;43667;53.036;6.740;2022-12-18T00:33:32;111.20;;;42.65;;
57832;SDS011;43667;53.036;6.740;2022-12-18T00:36:01;115.50;;;44.77;;
57832;SDS011;43667;53.036;6.740;2022-12-18T00:38:46;115.70;;;43.72;;
57832;SDS011;43667;53.036;6.740;2022-12-18T00:41:12;113.93;;;44.58;;
57832;SDS011;43667;53.036;6.740;2022-12-18T00:43:59;109.57;;;42.47;;
57832;SDS011;43667;53.036;6.740;2022-12-18T00:46:25;120.50;;;43.93;;
57832;SDS011;43667;53.036;6.740;2022-12-18T00:48:51;110.93;;;43.70;;
57832;SDS011;43667;53.036;6.740;2022-12-18T00:51:16;115.53;;;43.45;;
57832;SDS011;43667;53.036;6.740;2022-12-18T00:53:42;115.63;;;43.58;;
57832;SDS011;43667;53.036;6.740;2022-12-18T00:56:07;115.32;;;44.85;;
57832;SDS011;43667;53.036;6.740;2022-12-18T00:58:33;110.33;;;43.73;;
57832;SDS011;43667;53.036;6.740;2022-12-18T01:04:02;113.93;;;42.88;;
57832;SDS011;43667;53.036;6.740;2022-12-18T01:06:28;121.13;;;44.77;;
57832;SDS011;43667;53.036;6.740;2022-12-18T01:08:53;129.35;;;46.85;;
57832;SDS011;43667;53.036;6.740;2022-12-18T01:11:20;117.33;;;45.40;;
57832;SDS011;43667;53.036;6.740;2022-12-18T01:13:46;128.95;;;46.13;;
57832;SDS011;43667;53.036;6.740;2022-12-18T01:16:12;113.55;;;45.70;;
57832;SDS011;43667;53.036;6.740;2022-12-18T01:18:39;126.73;;;46.13;;
57832;SDS011;43667;53.036;6.740;2022-12-18T01:21:06;121.68;;;45.72;;
57832;SDS011;43667;53.036;6.740;2022-12-18T01:23:33;126.40;;;46.22;;
57832;SDS011;43667;53.036;6.740;2022-12-18T01:26:03;130.73;;;46.47;;
57832;SDS011;43667;53.036;6.740;2022-12-18T01:28:33;115.47;;;44.27;;
57832;SDS011;43667;53.036;6.740;2022-12-18T01:31:08;125.28;;;45.55;;
57832;SDS011;43667;53.036;6.740;2022-12-18T01:33:35;116.80;;;45.55;;
57832;SDS011;43667;53.036;6.740;2022-12-18T01:36:00;124.40;;;45.22;;
57832;SDS011;43667;53.036;6.740;2022-12-18T01:38:27;115.90;;;47.13;;
57832;SDS011;43667;53.036;6.740;2022-12-18T01:40:58;132.77;;;48.27;;
57832;SDS011;43667;53.036;6.740;2022-12-18T01:46:20;128.30;;;46.38;;
57832;SDS011;43667;53.036;6.740;2022-12-18T01:48:51;120.20;;;46.10;;
57832;SDS011;43667;53.036;6.740;2022-12-18T01:51:21;114.50;;;45.78;;
57832;SDS011;43667;53.036;6.740;2022-12-18T01:53:47;115.68;;;45.20;;
57832;SDS011;43667;53.036;6.740;2022-12-18T01:56:14;126.33;;;47.53;;
57832;SDS011;43667;53.036;6.740;2022-12-18T01:58:55;118.25;;;49.13;;
57832;SDS011;43667;53.036;6.740;2022-12-18T02:01:27;118.50;;;46.17;;
57832;SDS011;43667;53.036;6.740;2022-12-18T02:03:55;122.13;;;47.75;;
57832;SDS011;43667;53.036;6.740;2022-12-18T02:06:29;116.17;;;47.50;;
57832;SDS011;43667;53.036;6.740;2022-12-18T02:17:01;117.30;;;45.35;;
57832;SDS011;43667;53.036;6.740;2022-12-18T02:28:06;117.50;;;46.17;;
57832;SDS011;43667;53.036;6.740;2022-12-18T02:30:36;112.60;;;45.90;;
57832;SDS011;43667;53.036;6.740;2022-12-18T02:33:04;122.28;;;46.35;;
57832;SDS011;43667;53.036;6.740;2022-12-18T02:35:31;108.47;;;45.57;;
57832;SDS011;43667;53.036;6.740;2022-12-18T02:37:59;109.47;;;45.97;;
57832;SDS011;43667;53.036;6.740;2022-12-18T02:40:25;113.47;;;46.13;;
57832;SDS011;43667;53.036;6.740;2022-12-18T02:42:52;122.80;;;49.03;;
57832;SDS011;43667;53.036;6.740;2022-12-18T02:45:18;113.90;;;45.78;;
57832;SDS011;43667;53.036;6.740;2022-12-18T02:47:45;102.17;;;43.80;;
57832;SDS011;43667;53.036;6.740;2022-12-18T02:56:00;112.17;;;45.00;;
57832;SDS011;43667;53.036;6.740;2022-12-18T03:01:17;107.67;;;45.23;;
57832;SDS011;43667;53.036;6.740;2022-12-18T03:03:55;113.57;;;44.22;;
57832;SDS011;43667;53.036;6.740;2022-12-18T03:06:27;112.33;;;44.03;;
57832;SDS011;43667;53.036;6.740;2022-12-18T03:08:58;105.33;;;45.03;;
57832;SDS011;43667;53.036;6.740;2022-12-18T03:11:28;108.93;;;43.00;;
57832;SDS011;43667;53.036;6.740;2022-12-18T03:14:16;112.33;;;43.70;;
57832;SDS011;43667;53.036;6.740;2022-12-18T03:16:45;103.70;;;41.63;;
57832;SDS011;43667;53.036;6.740;2022-12-18T03:19:18;102.23;;;40.77;;
57832;SDS011;43667;53.036;6.740;2022-12-18T03:21:49;100.80;;;40.22;;
57832;SDS011;43667;53.036;6.740;2022-12-18T03:24:19;100.37;;;40.17;;
57832;SDS011;43667;53.036;6.740;2022-12-18T03:26:47;107.43;;;43.80;;
57832;SDS011;43667;53.036;6.740;2022-12-18T03:29:33;94.07;;;41.07;;
57832;SDS011;43667;53.036;6.740;2022-12-18T03:32:06;100.17;;;40.20;;
57832;SDS011;43667;53.036;6.740;2022-12-18T03:34:35;96.40;;;40.80;;
57832;SDS011;43667;53.036;6.740;2022-12-18T03:37:03;91.60;;;39.80;;
57832;SDS011;43667;53.036;6.740;2022-12-18T03:39:30;89.37;;;39.23;;
57832;SDS011;43667;53.036;6.740;2022-12-18T03:44:40;96.70;;;38.87;;
57832;SDS011;43667;53.036;6.740;2022-12-18T03:47:09;95.13;;;38.33;;
57832;SDS011;43667;53.036;6.740;2022-12-18T03:55:18;92.17;;;38.00;;
57832;SDS011;43667;53.036;6.740;2022-12-18T03:57:45;93.83;;;38.57;;
57832;SDS011;43667;53.036;6.740;2022-12-18T04:00:14;84.87;;;37.83;;
57832;SDS011;43667;53.036;6.740;2022-12-18T04:02:47;91.27;;;38.20;;
57832;SDS011;43667;53.036;6.740;2022-12-18T04:05:16;84.53;;;37.30;;
57832;SDS011;43667;53.036;6.740;2022-12-18T04:07:44;85.37;;;36.37;;
57832;SDS011;43667;53.036;6.740;2022-12-18T04:10:11;82.73;;;36.60;;
57832;SDS011;43667;53.036;6.740;2022-12-18T04:12:38;84.60;;;36.60;;
57832;SDS011;43667;53.036;6.740;2022-12-18T04:15:04;82.00;;;36.60;;
57832;SDS011;43667;53.036;6.740;2022-12-18T04:17:30;86.33;;;37.23;;
57832;SDS011;43667;53.036;6.740;2022-12-18T04:19:56;84.20;;;36.47;;
57832;SDS011;43667;53.036;6.740;2022-12-18T04:22:21;89.23;;;35.87;;
57832;SDS011;43667;53.036;6.740;2022-12-18T04:24:47;79.07;;;35.03;;
57832;SDS011;43667;53.036;6.740;2022-12-18T04:27:12;76.53;;;35.57;;
57832;SDS011;43667;53.036;6.740;2022-12-18T04:29:39;75.50;;;32.93;;
57832;SDS011;43667;53.036;6.740;2022-12-18T04:32:04;82.17;;;35.97;;
57832;SDS011;43667;53.036;6.740;2022-12-18T04:34:30;85.00;;;34.77;;
57832;SDS011;43667;53.036;6.740;2022-12-18T04:36:56;73.97;;;34.10;;
57832;SDS011;43667;53.036;6.740;2022-12-18T04:39:21;74.13;;;32.83;;
57832;SDS011;43667;53.036;6.740;2022-12-18T04:41:47;74.33;;;33.33;;
57832;SDS011;43667;53.036;6.740;2022-12-18T04:44:13;71.63;;;33.10;;
57832;SDS011;43667;53.036;6.740;2022-12-18T04:46:39;75.53;;;33.33;;
57832;SDS011;43667;53.036;6.740;2022-12-18T04:49:04;81.63;;;33.87;;
57832;SDS011;43667;53.036;6.740;2022-12-18T04:51:30;72.07;;;32.97;;
57832;SDS011;43667;53.036;6.740;2022-12-18T04:53:55;55.73;;;29.20;;
57832;SDS011;43667;53.036;6.740;2022-12-18T04:56:21;66.57;;;30.50;;
57832;SDS011;43667;53.036;6.740;2022-12-18T04:58:47;59.83;;;29.87;;
57832;SDS011;43667;53.036;6.740;2022-12-18T05:01:13;70.97;;;31.37;;
57832;SDS011;43667;53.036;6.740;2022-12-18T05:03:40;61.00;;;30.33;;
57832;SDS011;43667;53.036;6.740;2022-12-18T05:06:06;61.90;;;28.53;;
57832;SDS011;43667;53.036;6.740;2022-12-18T05:08:32;66.17;;;29.37;;
57832;SDS011;43667;53.036;6.740;2022-12-18T05:11:19;61.23;;;28.27;;
57832;SDS011;43667;53.036;6.740;2022-12-18T05:13:44;58.53;;;28.83;;
57832;SDS011;43667;53.036;6.740;2022-12-18T05:16:10;61.90;;;29.53;;
57832;SDS011;43667;53.036;6.740;2022-12-18T05:18:37;61.40;;;28.57;;
57832;SDS011;43667;53.036;6.740;2022-12-18T05:21:03;56.47;;;27.93;;
57832;SDS011;43667;53.036;6.740;2022-12-18T05:23:29;53.20;;;27.10;;
57832;SDS011;43667;53.036;6.740;2022-12-18T05:25:55;57.50;;;28.50;;
57832;SDS011;43667;53.036;6.740;2022-12-18T05:28:24;58.87;;;28.83;;
57832;SDS011;43667;53.036;6.740;2022-12-18T05:30:52;61.47;;;28.33;;
57832;SDS011;43667;53.036;6.740;2022-12-18T05:33:22;66.17;;;29.33;;
57832;SDS011;43667;53.036;6.740;2022-12-18T05:35:57;59.33;;;27.33;;
57832;SDS011;43667;53.036;6.740;2022-12-18T05:38:24;60.57;;;28.23;;
57832;SDS011;43667;53.036;6.740;2022-12-18T05:40:50;61.53;;;30.33;;
57832;SDS011;43667;53.036;6.740;2022-12-18T05:43:17;56.67;;;28.83;;
57832;SDS011;43667;53.036;6.740;2022-12-18T05:45:44;61.37;;;29.00;;
57832;SDS011;43667;53.036;6.740;2022-12-18T05:48:10;60.57;;;28.07;;
57832;SDS011;43667;53.036;6.740;2022-12-18T05:50:39;60.83;;;28.33;;
57832;SDS011;43667;53.036;6.740;2022-12-18T05:53:06;55.97;;;28.70;;
57832;SDS011;43667;53.036;6.740;2022-12-18T05:55:35;57.43;;;28.87;;
57832;SDS011;43667;53.036;6.740;2022-12-18T05:58:02;63.10;;;28.67;;
57832;SDS011;43667;53.036;6.740;2022-12-18T06:00:29;55.53;;;27.90;;
57832;SDS011;43667;53.036;6.740;2022-12-18T06:02:55;57.20;;;27.80;;
57832;SDS011;43667;53.036;6.740;2022-12-18T06:05:21;57.73;;;28.03;;
57832;SDS011;43667;53.036;6.740;2022-12-18T06:07:46;54.87;;;27.23;;
57832;SDS011;43667;53.036;6.740;2022-12-18T06:10:12;57.00;;;27.57;;
57832;SDS011;43667;53.036;6.740;2022-12-18T06:12:37;57.87;;;28.83;;
57832;SDS011;43667;53.036;6.740;2022-12-18T06:15:03;60.83;;;27.87;;
57832;SDS011;43667;53.036;6.740;2022-12-18T06:17:30;52.30;;;26.73;;
57832;SDS011;43667;53.036;6.740;2022-12-18T06:19:56;55.50;;;27.87;;
57832;SDS011;43667;53.036;6.740;2022-12-18T06:22:22;56.17;;;28.93;;
57832;SDS011;43667;53.036;6.740;2022-12-18T06:24:48;50.47;;;27.40;;
57832;SDS011;43667;53.036;6.740;2022-12-18T06:27:13;56.13;;;26.70;;
57832;SDS011;43667;53.036;6.740;2022-12-18T06:29:39;51.83;;;25.90;;
57832;SDS011;43667;53.036;6.740;2022-12-18T06:32:05;52.93;;;25.93;;
57832;SDS011;43667;53.036;6.740;2022-12-18T06:34:31;53.70;;;26.03;;
57832;SDS011;43667;53.036;6.740;2022-12-18T06:36:57;57.47;;;27.67;;
57832;SDS011;43667;53.036;6.740;2022-12-18T06:39:23;56.47;;;27.90;;
57832;SDS011;43667;53.036;6.740;2022-12-18T06:41:49;52.17;;;26.67;;
57832;SDS011;43667;53.036;6.740;2022-12-18T06:44:15;55.33;;;26.83;;
57832;SDS011;43667;53.036;6.740;2022-12-18T06:46:40;46.17;;;26.37;;
57832;SDS011;43667;53.036;6.740;2022-12-18T06:49:06;55.53;;;27.20;;
57832;SDS011;43667;53.036;6.740;2022-12-18T06:51:34;51.20;;;24.90;;
57832;SDS011;43667;53.036;6.740;2022-12-18T06:54:00;51.90;;;25.90;;
57832;SDS011;43667;53.036;6.740;2022-12-18T06:56:25;53.60;;;27.50;;
57832;SDS011;43667;53.036;6.740;2022-12-18T06:58:51;49.70;;;26.13;;
57832;SDS011;43667;53.036;6.740;2022-12-18T07:01:17;52.67;;;26.20;;
57832;SDS011;43667;53.036;6.740;2022-12-18T07:03:42;48.70;;;26.93;;
57832;SDS011;43667;53.036;6.740;2022-12-18T07:06:26;49.83;;;25.03;;
57832;SDS011;43667;53.036;6.740;2022-12-18T07:08:52;49.85;;;25.30;;
57832;SDS011;43667;53.036;6.740;2022-12-18T07:11:19;52.03;;;26.10;;
57832;SDS011;43667;53.036;6.740;2022-12-18T07:13:45;49.37;;;25.70;;
57832;SDS011;43667;53.036;6.740;2022-12-18T07:16:11;52.37;;;26.30;;
57832;SDS011;43667;53.036;6.740;2022-12-18T07:18:42;51.97;;;25.77;;
57832;SDS011;43667;53.036;6.740;2022-12-18T07:21:09;57.27;;;27.13;;
57832;SDS011;43667;53.036;6.740;2022-12-18T07:23:37;58.93;;;27.27;;
57832;SDS011;43667;53.036;6.740;2022-12-18T07:26:04;50.63;;;25.80;;
57832;SDS011;43667;53.036;6.740;2022-12-18T07:28:32;52.50;;;25.83;;
57832;SDS011;43667;53.036;6.740;2022-12-18T07:31:02;47.70;;;25.37;;
57832;SDS011;43667;53.036;6.740;2022-12-18T07:33:28;48.50;;;26.17;;
57832;SDS011;43667;53.036;6.740;2022-12-18T07:35:53;48.90;;;25.17;;
57832;SDS011;43667;53.036;6.740;2022-12-18T07:38:19;50.80;;;25.27;;
57832;SDS011;43667;53.036;6.740;2022-12-18T07:40:45;45.77;;;25.47;;
57832;SDS011;43667;53.036;6.740;2022-12-18T07:43:11;49.60;;;24.97;;
57832;SDS011;43667;53.036;6.740;2022-12-18T07:45:36;51.37;;;25.20;;
57832;SDS011;43667;53.036;6.740;2022-12-18T07:48:02;47.53;;;25.20;;
57832;SDS011;43667;53.036;6.740;2022-12-18T07:50:28;49.50;;;26.33;;
57832;SDS011;43667;53.036;6.740;2022-12-18T07:52:53;51.60;;;25.57;;
57832;SDS011;43667;53.036;6.740;2022-12-18T07:55:19;47.47;;;25.13;;
57832;SDS011;43667;53.036;6.740;2022-12-18T07:57:44;50.20;;;25.83;;
57832;SDS011;43667;53.036;6.740;2022-12-18T08:00:10;48.10;;;24.53;;
57832;SDS011;43667;53.036;6.740;2022-12-18T08:02:37;41.17;;;23.43;;
57832;SDS011;43667;53.036;6.740;2022-12-18T08:05:02;39.47;;;22.27;;
57832;SDS011;43667;53.036;6.740;2022-12-18T08:07:28;42.10;;;23.77;;
57832;SDS011;43667;53.036;6.740;2022-12-18T08:09:54;47.57;;;24.90;;
57832;SDS011;43667;53.036;6.740;2022-12-18T08:12:19;43.37;;;23.97;;
57832;SDS011;43667;53.036;6.740;2022-12-18T08:14:45;44.43;;;23.83;;
57832;SDS011;43667;53.036;6.740;2022-12-18T08:17:10;48.60;;;25.57;;
57832;SDS011;43667;53.036;6.740;2022-12-18T08:19:36;45.83;;;24.43;;
57832;SDS011;43667;53.036;6.740;2022-12-18T08:22:02;39.23;;;22.97;;
57832;SDS011;43667;53.036;6.740;2022-12-18T08:24:27;44.70;;;23.73;;
57832;SDS011;43667;53.036;6.740;2022-12-18T08:26:53;41.17;;;22.03;;
57832;SDS011;43667;53.036;6.740;2022-12-18T08:29:18;43.73;;;23.90;;
57832;SDS011;43667;53.036;6.740;2022-12-18T08:31:44;42.00;;;23.83;;
57832;SDS011;43667;53.036;6.740;2022-12-18T08:34:10;39.90;;;23.67;;
57832;SDS011;43667;53.036;6.740;2022-12-18T08:36:36;39.30;;;22.23;;
57832;SDS011;43667;53.036;6.740;2022-12-18T08:39:01;39.73;;;23.27;;
57832;SDS011;43667;53.036;6.740;2022-12-18T08:41:27;39.67;;;23.27;;
57832;SDS011;43667;53.036;6.740;2022-12-18T08:43:52;40.03;;;23.23;;
57832;SDS011;43667;53.036;6.740;2022-12-18T08:46:40;43.17;;;23.53;;
57832;SDS011;43667;53.036;6.740;2022-12-18T08:49:07;41.47;;;23.23;;
57832;SDS011;43667;53.036;6.740;2022-12-18T08:51:34;36.13;;;21.83;;
57832;SDS011;43667;53.036;6.740;2022-12-18T08:54:01;39.53;;;22.70;;
57832;SDS011;43667;53.036;6.740;2022-12-18T08:56:27;37.17;;;22.13;;
57832;SDS011;43667;53.036;6.740;2022-12-18T08:58:53;35.73;;;22.23;;
57832;SDS011;43667;53.036;6.740;2022-12-18T09:01:19;39.47;;;22.70;;
57832;SDS011;43667;53.036;6.740;2022-12-18T09:03:46;38.70;;;22.53;;
57832;SDS011;43667;53.036;6.740;2022-12-18T09:06:13;34.30;;;20.23;;
57832;SDS011;43667;53.036;6.740;2022-12-18T09:08:40;35.27;;;20.47;;
57832;SDS011;43667;53.036;6.740;2022-12-18T09:11:20;40.50;;;23.37;;
57832;SDS011;43667;53.036;6.740;2022-12-18T09:13:47;35.43;;;21.60;;
57832;SDS011;43667;53.036;6.740;2022-12-18T09:16:14;35.93;;;21.07;;
57832;SDS011;43667;53.036;6.740;2022-12-18T09:18:40;33.27;;;20.73;;
57832;SDS011;43667;53.036;6.740;2022-12-18T09:21:10;36.43;;;21.70;;
57832;SDS011;43667;53.036;6.740;2022-12-18T09:23:37;31.33;;;19.87;;
57832;SDS011;43667;53.036;6.740;2022-12-18T09:26:03;37.63;;;21.40;;
57832;SDS011;43667;53.036;6.740;2022-12-18T09:28:29;32.13;;;18.93;;
57832;SDS011;43667;53.036;6.740;2022-12-18T09:30:54;29.80;;;18.63;;
57832;SDS011;43667;53.036;6.740;2022-12-18T09:33:20;31.83;;;19.93;;
57832;SDS011;43667;53.036;6.740;2022-12-18T09:35:46;25.30;;;17.17;;
57832;SDS011;43667;53.036;6.740;2022-12-18T09:38:12;33.33;;;18.10;;
57832;SDS011;43667;53.036;6.740;2022-12-18T09:40:47;27.83;;;16.60;;
57832;SDS011;43667;53.036;6.740;2022-12-18T09:43:24;25.27;;;16.23;;
57832;SDS011;43667;53.036;6.740;2022-12-18T09:46:00;20.65;;;15.02;;
57832;SDS011;43667;53.036;6.740;2022-12-18T09:48:30;21.73;;;14.17;;
57832;SDS011;43667;53.036;6.740;2022-12-18T09:51:04;24.13;;;16.10;;
57832;SDS011;43667;53.036;6.740;2022-12-18T09:53:35;24.53;;;15.40;;
57832;SDS011;43667;53.036;6.740;2022-12-18T09:56:06;23.67;;;16.53;;
57832;SDS011;43667;53.036;6.740;2022-12-18T09:58:46;18.83;;;13.83;;
57832;SDS011;43667;53.036;6.740;2022-12-18T10:01:34;21.17;;;13.43;;
57832;SDS011;43667;53.036;6.740;2022-12-18T10:03:59;20.73;;;13.63;;
57832;SDS011;43667;53.036;6.740;2022-12-18T10:14:36;19.07;;;12.33;;
57832;SDS011;43667;53.036;6.740;2022-12-18T10:20:12;21.53;;;11.97;;
57832;SDS011;43667;53.036;6.740;2022-12-18T10:25:48;16.13;;;11.17;;
57832;SDS011;43667;53.036;6.740;2022-12-18T10:28:16;17.67;;;11.03;;
57832;SDS011;43667;53.036;6.740;2022-12-18T10:30:44;14.47;;;10.33;;
57832;SDS011;43667;53.036;6.740;2022-12-18T10:33:11;15.57;;;10.57;;
57832;SDS011;43667;53.036;6.740;2022-12-18T10:35:42;12.90;;;10.33;;
57832;SDS011;43667;53.036;6.740;2022-12-18T10:40:57;16.37;;;10.63;;
57832;SDS011;43667;53.036;6.740;2022-12-18T10:43:24;13.98;;;10.40;;
57832;SDS011;43667;53.036;6.740;2022-12-18T10:48:40;15.90;;;10.23;;
57832;SDS011;43667;53.036;6.740;2022-12-18T10:51:46;14.83;;;10.43;;
57832;SDS011;43667;53.036;6.740;2022-12-18T10:54:14;11.67;;;9.03;;
57832;SDS011;43667;53.036;6.740;2022-12-18T10:56:42;13.83;;;9.90;;
57832;SDS011;43667;53.036;6.740;2022-12-18T10:59:09;14.00;;;9.83;;
57832;SDS011;43667;53.036;6.740;2022-12-18T11:01:51;13.63;;;9.80;;
57832;SDS011;43667;53.036;6.740;2022-12-18T11:04:22;14.07;;;9.00;;
57832;SDS011;43667;53.036;6.740;2022-12-18T11:06:55;12.93;;;9.38;;
57832;SDS011;43667;53.036;6.740;2022-12-18T11:09:35;12.03;;;9.27;;
57832;SDS011;43667;53.036;6.740;2022-12-18T11:12:03;15.73;;;10.80;;
57832;SDS011;43667;53.036;6.740;2022-12-18T11:14:34;11.95;;;8.70;;
57832;SDS011;43667;53.036;6.740;2022-12-18T11:17:16;11.25;;;8.63;;
57832;SDS011;43667;53.036;6.740;2022-12-18T11:19:44;11.30;;;7.97;;
57832;SDS011;43667;53.036;6.740;2022-12-18T11:22:20;12.60;;;8.47;;
57832;SDS011;43667;53.036;6.740;2022-12-18T11:27:37;10.90;;;7.60;;
57832;SDS011;43667;53.036;6.740;2022-12-18T11:30:08;12.30;;;9.55;;
57832;SDS011;43667;53.036;6.740;2022-12-18T11:32:47;10.32;;;7.40;;
57832;SDS011;43667;53.036;6.740;2022-12-18T11:35:20;13.55;;;7.93;;
57832;SDS011;43667;53.036;6.740;2022-12-18T11:37:54;10.32;;;7.85;;
57832;SDS011;43667;53.036;6.740;2022-12-18T11:40:30;11.38;;;7.90;;
57832;SDS011;43667;53.036;6.740;2022-12-18T11:43:02;10.07;;;7.22;;
57832;SDS011;43667;53.036;6.740;2022-12-18T11:45:55;9.82;;;6.95;;
57832;SDS011;43667;53.036;6.740;2022-12-18T11:48:27;11.88;;;7.68;;
57832;SDS011;43667;53.036;6.740;2022-12-18T11:50:58;9.25;;;6.88;;
57832;SDS011;43667;53.036;6.740;2022-12-18T11:53:26;10.38;;;7.15;;
57832;SDS011;43667;53.036;6.740;2022-12-18T12:04:15;9.57;;;6.80;;
57832;SDS011;43667;53.036;6.740;2022-12-18T12:06:53;9.15;;;6.45;;
57832;SDS011;43667;53.036;6.740;2022-12-18T12:09:30;10.63;;;7.28;;
57832;SDS011;43667;53.036;6.740;2022-12-18T12:17:58;10.50;;;7.00;;
57832;SDS011;43667;53.036;6.740;2022-12-18T12:20:58;11.67;;;6.83;;
57832;SDS011;43667;53.036;6.740;2022-12-18T12:23:48;10.77;;;7.00;;
57832;SDS011;43667;53.036;6.740;2022-12-18T12:26:33;12.38;;;7.47;;
57832;SDS011;43667;53.036;6.740;2022-12-18T12:29:15;9.30;;;6.88;;
57832;SDS011;43667;53.036;6.740;2022-12-18T12:31:54;8.32;;;6.68;;
57832;SDS011;43667;53.036;6.740;2022-12-18T12:34:43;9.45;;;6.45;;
57832;SDS011;43667;53.036;6.740;2022-12-18T12:39:54;8.30;;;6.50;;
57832;SDS011;43667;53.036;6.740;2022-12-18T12:42:24;9.55;;;6.60;;
57832;SDS011;43667;53.036;6.740;2022-12-18T12:45:23;11.00;;;6.67;;
57832;SDS011;43667;53.036;6.740;2022-12-18T12:47:54;8.98;;;6.20;;
57832;SDS011;43667;53.036;6.740;2022-12-18T12:50:20;9.18;;;5.72;;
57832;SDS011;43667;53.036;6.740;2022-12-18T12:52:49;9.05;;;6.18;;
57832;SDS011;43667;53.036;6.740;2022-12-18T12:55:25;10.43;;;6.78;;
57832;SDS011;43667;53.036;6.740;2022-12-18T13:00:24;8.23;;;5.93;;
57832;SDS011;43667;53.036;6.740;2022-12-18T13:03:01;9.43;;;6.20;;
57832;SDS011;43667;53.036;6.740;2022-12-18T13:05:34;10.48;;;7.05;;
57832;SDS011;43667;53.036;6.740;2022-12-18T13:08:22;8.82;;;6.40;;
57832;SDS011;43667;53.036;6.740;2022-12-18T13:10:50;14.02;;;6.65;;
57832;SDS011;43667;53.036;6.740;2022-12-18T13:13:55;9.00;;;6.57;;
57832;SDS011;43667;53.036;6.740;2022-12-18T13:16:22;8.98;;;6.65;;
57832;SDS011;43667;53.036;6.740;2022-12-18T13:18:56;8.05;;;5.88;;
57832;SDS011;43667;53.036;6.740;2022-12-18T13:23:53;8.00;;;6.10;;
57832;SDS011;43667;53.036;6.740;2022-12-18T13:28:52;9.63;;;6.35;;
57832;SDS011;43667;53.036;6.740;2022-12-18T13:34:17;10.77;;;7.05;;
57832;SDS011;43667;53.036;6.740;2022-12-18T13:36:45;8.20;;;6.15;;
57832;SDS011;43667;53.036;6.740;2022-12-18T13:41:43;9.15;;;6.22;;
57832;SDS011;43667;53.036;6.740;2022-12-18T13:46:50;9.07;;;6.30;;
57832;SDS011;43667;53.036;6.740;2022-12-18T13:51:53;10.43;;;6.72;;
57832;SDS011;43667;53.036;6.740;2022-12-18T13:54:36;9.60;;;6.85;;
57832;SDS011;43667;53.036;6.740;2022-12-18T13:57:05;10.98;;;7.60;;
57832;SDS011;43667;53.036;6.740;2022-12-18T13:59:49;8.82;;;6.50;;
57832;SDS011;43667;53.036;6.740;2022-12-18T14:02:16;11.15;;;6.93;;
57832;SDS011;43667;53.036;6.740;2022-12-18T14:04:45;8.45;;;6.97;;
57832;SDS011;43667;53.036;6.740;2022-12-18T14:07:45;9.02;;;6.85;;
57832;SDS011;43667;53.036;6.740;2022-12-18T14:10:11;9.93;;;6.78;;
57832;SDS011;43667;53.036;6.740;2022-12-18T14:12:39;9.93;;;6.57;;
57832;SDS011;43667;53.036;6.740;2022-12-18T14:17:51;11.10;;;6.50;;
57832;SDS011;43667;53.036;6.740;2022-12-18T14:20:19;10.02;;;7.13;;
57832;SDS011;43667;53.036;6.740;2022-12-18T14:22:46;9.27;;;6.03;;
57832;SDS011;43667;53.036;6.740;2022-12-18T14:25:18;10.27;;;7.03;;
57832;SDS011;43667;53.036;6.740;2022-12-18T14:27:44;9.05;;;6.65;;
57832;SDS011;43667;53.036;6.740;2022-12-18T14:30:45;10.27;;;7.32;;
57832;SDS011;43667;53.036;6.740;2022-12-18T14:36:04;12.23;;;7.93;;
57832;SDS011;43667;53.036;6.740;2022-12-18T14:38:31;11.70;;;7.35;;
57832;SDS011;43667;53.036;6.740;2022-12-18T14:41:01;9.68;;;7.10;;
57832;SDS011;43667;53.036;6.740;2022-12-18T14:43:27;11.50;;;8.32;;
57832;SDS011;43667;53.036;6.740;2022-12-18T14:45:55;12.25;;;8.27;;
57832;SDS011;43667;53.036;6.740;2022-12-18T14:48:25;13.02;;;8.88;;
57832;SDS011;43667;53.036;6.740;2022-12-18T14:51:06;12.57;;;9.93;;
57832;SDS011;43667;53.036;6.740;2022-12-18T14:53:36;10.73;;;8.20;;
57832;SDS011;43667;53.036;6.740;2022-12-18T14:56:18;11.05;;;7.50;;
57832;SDS011;43667;53.036;6.740;2022-12-18T14:58:47;11.55;;;8.30;;
57832;SDS011;43667;53.036;6.740;2022-12-18T15:01:21;13.77;;;9.05;;
57832;SDS011;43667;53.036;6.740;2022-12-18T15:03:53;12.57;;;8.88;;
57832;SDS011;43667;53.036;6.740;2022-12-18T15:06:24;11.10;;;8.30;;
57832;SDS011;43667;53.036;6.740;2022-12-18T15:08:56;14.23;;;8.93;;
57832;SDS011;43667;53.036;6.740;2022-12-18T15:11:34;13.65;;;8.45;;
57832;SDS011;43667;53.036;6.740;2022-12-18T15:16:58;13.20;;;8.40;;
57832;SDS011;43667;53.036;6.740;2022-12-18T15:19:38;12.57;;;8.32;;
57832;SDS011;43667;53.036;6.740;2022-12-18T15:22:19;13.50;;;8.88;;
57832;SDS011;43667;53.036;6.740;2022-12-18T15:24:48;14.23;;;9.32;;
57832;SDS011;43667;53.036;6.740;2022-12-18T15:27:25;14.30;;;8.65;;
57832;SDS011;43667;53.036;6.740;2022-12-18T15:32:33;11.73;;;9.18;;
57832;SDS011;43667;53.036;6.740;2022-12-18T15:35:41;12.70;;;9.48;;
57832;SDS011;43667;53.036;6.740;2022-12-18T15:37:50;14.68;;;9.50;;
57832;SDS011;43667;53.036;6.740;2022-12-18T15:40:18;13.02;;;9.50;;
57832;SDS011;43667;53.036;6.740;2022-12-18T15:42:45;12.70;;;9.60;;
57832;SDS011;43667;53.036;6.740;2022-12-18T15:45:31;12.13;;;8.55;;
57832;SDS011;43667;53.036;6.740;2022-12-18T15:47:57;12.23;;;9.55;;
57832;SDS011;43667;53.036;6.740;2022-12-18T15:50:22;13.88;;;9.18;;
57832;SDS011;43667;53.036;6.740;2022-12-18T15:52:49;13.32;;;9.40;;
57832;SDS011;43667;53.036;6.740;2022-12-18T15:55:19;13.27;;;9.07;;
57832;SDS011;43667;53.036;6.740;2022-12-18T15:58:05;12.40;;;9.45;;
57832;SDS011;43667;53.036;6.740;2022-12-18T16:00:31;15.07;;;9.50;;
57832;SDS011;43667;53.036;6.740;2022-12-18T16:02:58;13.63;;;9.75;;
57832;SDS011;43667;53.036;6.740;2022-12-18T16:05:24;15.38;;;9.52;;
57832;SDS011;43667;53.036;6.740;2022-12-18T16:07:52;12.60;;;10.18;;
57832;SDS011;43667;53.036;6.740;2022-12-18T16:10:17;15.27;;;9.88;;
57832;SDS011;43667;53.036;6.740;2022-12-18T16:12:43;16.80;;;10.02;;
57832;SDS011;43667;53.036;6.740;2022-12-18T16:15:10;13.13;;;9.35;;
57832;SDS011;43667;53.036;6.740;2022-12-18T16:17:38;13.52;;;9.73;;
57832;SDS011;43667;53.036;6.740;2022-12-18T16:20:05;11.85;;;9.60;;
57832;SDS011;43667;53.036;6.740;2022-12-18T16:22:36;15.48;;;9.75;;
57832;SDS011;43667;53.036;6.740;2022-12-18T16:25:02;12.85;;;9.48;;
57832;SDS011;43667;53.036;6.740;2022-12-18T16:27:27;14.15;;;9.52;;